Time;durP1;ratioP1;P1;durP2;ratioP2;P2;SDS_P1;SDS_P2;PMS_P1;PMS_P2;Temp;Humidity;BMP_temperature;BMP_pressure;BME280_temperature;BME280_humidity;BME280_pressure;Samples;Min_cycle;Max_cycle;Signal;HPM_P1;HPM_P2
2022/09/06 00:00:56;;;;;;;4.95;3.50;;;20.80;98.20;;;;;;5041860;28;20037;-73
2022/09/06 00:03:22;;;;;;;5.55;3.83;;;20.60;98.00;;;;;;5048125;28;20041;-73
2022/09/06 00:05:49;;;;;;;7.72;3.83;;;20.50;98.00;;;;;;5039451;28;20047;-73
2022/09/06 00:08:15;;;;;;;9.15;3.90;;;20.50;98.20;;;;;;5032619;28;20045;-73
2022/09/06 00:10:41;;;;;;;6.65;3.80;;;20.40;98.30;;;;;;5045962;28;20040;-72
2022/09/06 00:13:09;;;;;;;9.48;3.15;;;20.40;98.40;;;;;;5035605;28;20049;-73
2022/09/06 00:15:36;;;;;;;4.95;3.80;;;20.30;98.70;;;;;;5045325;28;20389;-72
2022/09/06 00:18:05;;;;;;;7.00;3.65;;;20.30;99.20;;;;;;5040292;28;20041;-72
2022/09/06 00:20:31;;;;;;;7.07;3.97;;;20.20;99.40;;;;;;5046426;28;20041;-72
2022/09/06 00:22:59;;;;;;;5.32;3.90;;;20.20;99.40;;;;;;5043449;28;20090;-72
2022/09/06 00:25:25;;;;;;;6.20;4.10;;;20.10;99.50;;;;;;5023181;28;20033;-73
2022/09/06 00:27:59;;;;;;;5.00;3.92;;;20.10;99.60;;;;;;5031044;28;20063;-72
2022/09/06 00:30:26;;;;;;;11.32;4.10;;;20.00;99.70;;;;;;5006429;28;20041;-73
2022/09/06 00:32:53;;;;;;;4.50;3.67;;;20.10;99.70;;;;;;5031857;28;20044;-73
2022/09/06 00:35:20;;;;;;;7.03;3.70;;;20.00;99.90;;;;;;5028478;28;20033;-73
2022/09/06 00:37:46;;;;;;;7.90;3.30;;;20.00;99.90;;;;;;5026443;28;20065;-72
2022/09/06 00:40:13;;;;;;;6.05;3.88;;;20.00;99.90;;;;;;5003582;28;20171;-72
2022/09/06 00:42:39;;;;;;;6.70;3.33;;;19.90;99.90;;;;;;5049641;28;20047;-72
2022/09/06 00:45:07;;;;;;;8.25;3.90;;;19.90;99.90;;;;;;5024733;28;20452;-73
2022/09/06 00:47:35;;;;;;;7.68;4.18;;;19.90;99.90;;;;;;5022504;28;20616;-73
2022/09/06 00:50:02;;;;;;;4.63;4.22;;;19.90;99.90;;;;;;5024458;28;20065;-73
2022/09/06 00:52:29;;;;;;;7.95;4.10;;;19.90;99.90;;;;;;5027979;28;20045;-72
2022/09/06 00:54:55;;;;;;;6.63;4.10;;;19.80;99.90;;;;;;5036021;28;20045;-72
2022/09/06 00:57:25;;;;;;;9.93;4.05;;;19.80;99.90;;;;;;5035428;28;20080;-72
2022/09/06 00:59:53;;;;;;;6.38;3.53;;;19.70;99.90;;;;;;5050301;28;20033;-73
2022/09/06 01:10:19;;;;;;;6.97;3.78;;;19.70;99.90;;;;;;5044714;28;20471;-72
2022/09/06 01:13:02;;;;;;;11.25;3.63;;;19.60;99.90;;;;;;5041809;28;20033;-73
2022/09/06 01:19:11;;;;;;;6.70;4.22;;;19.50;99.90;;;;;;5037281;28;20041;-73
2022/09/06 01:22:06;;;;;;;4.72;4.30;;;19.50;99.90;;;;;;5016742;28;20063;-73
2022/09/06 01:24:57;;;;;;;6.15;4.20;;;19.50;99.90;;;;;;5049947;28;20037;-73
2022/09/06 01:27:49;;;;;;;6.68;4.82;;;19.50;99.90;;;;;;5045990;28;20099;-72
2022/09/06 01:30:18;;;;;;;7.75;4.45;;;19.40;99.90;;;;;;5022114;28;20141;-73
2022/09/06 01:33:12;;;;;;;7.60;4.47;;;19.40;99.90;;;;;;5053362;28;20072;-72
2022/09/06 01:35:41;;;;;;;6.82;4.32;;;19.40;99.90;;;;;;5047494;28;20065;-72
2022/09/06 01:38:07;;;;;;;5.68;3.90;;;19.40;99.90;;;;;;5052689;28;20112;-72
2022/09/06 01:40:35;;;;;;;4.68;4.13;;;19.40;99.90;;;;;;5044588;28;20084;-72
2022/09/06 01:43:03;;;;;;;8.57;4.32;;;19.40;99.90;;;;;;5050037;28;20047;-72
2022/09/06 01:45:44;;;;;;;5.90;3.90;;;19.40;99.90;;;;;;5027191;28;20091;-73
2022/09/06 01:48:54;;;;;;;4.95;4.00;;;19.40;99.90;;;;;;5015161;28;20049;-73
2022/09/06 01:51:35;;;;;;;5.85;4.40;;;19.30;99.90;;;;;;5001854;28;20053;-73
2022/09/06 01:54:10;;;;;;;10.13;4.67;;;19.30;99.90;;;;;;5038292;28;20048;-73
2022/09/06 01:57:03;;;;;;;7.07;4.57;;;19.30;99.90;;;;;;5033646;28;20037;-73
2022/09/06 01:59:34;;;;;;;7.75;4.72;;;19.30;99.90;;;;;;5044203;28;20553;-73
2022/09/06 02:02:25;;;;;;;4.60;4.10;;;19.30;99.90;;;;;;5046883;28;20087;-73
2022/09/06 02:05:00;;;;;;;6.65;4.82;;;19.30;99.90;;;;;;5025922;28;20033;-73
2022/09/06 02:07:28;;;;;;;6.28;4.68;;;19.30;99.90;;;;;;5030833;28;20056;-73
2022/09/06 02:10:12;;;;;;;6.07;4.30;;;19.30;99.90;;;;;;5031598;28;20037;-73
2022/09/06 02:12:42;;;;;;;4.25;3.80;;;19.30;99.90;;;;;;5031152;28;20048;-73
2022/09/06 02:15:19;;;;;;;4.57;4.07;;;19.30;99.90;;;;;;5032893;28;20067;-73
2022/09/06 02:18:14;;;;;;;7.63;4.88;;;19.20;99.90;;;;;;5024802;28;20132;-73
2022/09/06 02:20:44;;;;;;;5.07;4.38;;;19.20;99.90;;;;;;5018241;28;20045;-73
2022/09/06 02:23:25;;;;;;;8.07;4.63;;;19.10;99.90;;;;;;5023700;28;20088;-73
2022/09/06 02:25:59;;;;;;;5.03;4.53;;;19.10;99.90;;;;;;5040467;28;20048;-73
2022/09/06 02:28:25;;;;;;;8.70;4.40;;;19.10;99.90;;;;;;5026988;28;20047;-73
2022/09/06 02:30:57;;;;;;;7.45;4.68;;;19.10;99.90;;;;;;5033930;28;20041;-73
2022/09/06 02:33:27;;;;;;;4.47;4.10;;;19.10;99.90;;;;;;5049182;28;20037;-73
2022/09/06 02:35:54;;;;;;;6.03;5.10;;;19.10;99.90;;;;;;5030990;28;20044;-73
2022/09/06 02:38:25;;;;;;;8.50;4.38;;;19.00;99.90;;;;;;5019281;28;20041;-73
2022/09/06 02:40:52;;;;;;;7.27;4.90;;;19.00;99.90;;;;;;5033820;28;20100;-73
2022/09/06 02:43:19;;;;;;;6.43;5.25;;;19.00;99.90;;;;;;5030398;28;20061;-73
2022/09/06 02:45:44;;;;;;;5.22;4.82;;;18.90;99.90;;;;;;5026103;28;20119;-73
2022/09/06 02:48:10;;;;;;;7.72;5.47;;;18.90;99.90;;;;;;5039485;28;20473;-73
2022/09/06 02:50:35;;;;;;;6.65;5.00;;;18.90;99.90;;;;;;5032341;28;20116;-73
2022/09/06 02:53:10;;;;;;;9.00;6.05;;;18.90;99.90;;;;;;5035881;28;20073;-73
2022/09/06 02:55:36;;;;;;;6.03;5.03;;;18.90;99.90;;;;;;5023074;28;20094;-73
2022/09/06 02:58:02;;;;;;;9.73;5.30;;;18.90;99.90;;;;;;5050193;28;20486;-73
2022/09/06 03:00:29;;;;;;;6.28;5.68;;;18.90;99.90;;;;;;5034535;28;20128;-73
2022/09/06 03:02:55;;;;;;;8.90;5.18;;;18.80;99.90;;;;;;5026622;28;20045;-73
2022/09/06 03:05:25;;;;;;;6.25;5.63;;;18.80;99.90;;;;;;5033550;28;20433;-73
2022/09/06 03:07:51;;;;;;;6.93;5.13;;;18.80;99.90;;;;;;5026790;28;20393;-72
2022/09/06 03:10:17;;;;;;;6.72;5.15;;;18.80;99.90;;;;;;5046584;28;20037;-72
2022/09/06 03:12:43;;;;;;;7.97;5.55;;;18.80;99.90;;;;;;5036852;28;20382;-72
2022/09/06 03:15:10;;;;;;;6.65;4.80;;;18.90;99.90;;;;;;5023750;28;20041;-73
2022/09/06 03:17:36;;;;;;;7.55;4.68;;;18.90;99.90;;;;;;5032158;28;20443;-73
2022/09/06 03:20:03;;;;;;;5.63;4.50;;;18.90;99.90;;;;;;5034665;28;20044;-73
2022/09/06 03:22:30;;;;;;;9.30;5.43;;;18.90;99.90;;;;;;5048586;28;20037;-73
2022/09/06 03:24:56;;;;;;;14.10;5.20;;;18.90;99.90;;;;;;5023965;28;20551;-73
2022/09/06 03:27:22;;;;;;;11.73;5.40;;;18.90;99.90;;;;;;5032199;28;20508;-73
2022/09/06 03:29:48;;;;;;;5.05;4.53;;;18.90;99.90;;;;;;5036012;28;20409;-73
2022/09/06 03:32:13;;;;;;;8.90;5.00;;;18.90;99.90;;;;;;5031656;28;20044;-73
2022/09/06 03:34:39;;;;;;;5.53;4.82;;;18.90;99.90;;;;;;5032967;28;20091;-73
2022/09/06 03:37:05;;;;;;;7.95;4.70;;;19.00;99.90;;;;;;5042271;28;20045;-73
2022/09/06 03:39:31;;;;;;;6.38;4.50;;;19.00;99.90;;;;;;5032672;28;20045;-73
2022/09/06 03:41:56;;;;;;;8.05;4.90;;;19.00;99.90;;;;;;5017500;28;20404;-73
2022/09/06 03:44:22;;;;;;;8.23;5.15;;;19.00;99.90;;;;;;5033652;28;20048;-73
2022/09/06 03:46:47;;;;;;;9.90;5.25;;;19.00;99.90;;;;;;5033003;28;20151;-73
2022/09/06 03:49:13;;;;;;;7.45;5.30;;;19.00;99.90;;;;;;5045645;28;20033;-73
2022/09/06 03:51:39;;;;;;;8.95;5.00;;;19.00;99.90;;;;;;5025798;28;20063;-73
2022/09/06 03:54:04;;;;;;;7.35;5.00;;;19.00;99.90;;;;;;5028040;28;20036;-73
2022/09/06 03:56:30;;;;;;;9.88;4.75;;;19.00;99.90;;;;;;5035837;28;20051;-73
2022/09/06 03:58:56;;;;;;;10.95;5.57;;;19.00;99.90;;;;;;5031740;28;20044;-73
2022/09/06 04:01:21;;;;;;;8.85;5.30;;;19.00;99.90;;;;;;5030401;28;20044;-73
2022/09/06 04:03:47;;;;;;;5.82;4.75;;;19.00;99.90;;;;;;5024641;28;20118;-73
2022/09/06 04:06:13;;;;;;;10.13;4.90;;;19.00;99.90;;;;;;5025808;28;20045;-73
2022/09/06 04:08:39;;;;;;;7.50;4.85;;;19.00;99.90;;;;;;5024695;28;20044;-73
2022/09/06 04:11:04;;;;;;;6.93;5.05;;;19.00;99.90;;;;;;5034017;28;20547;-73
2022/09/06 04:13:32;;;;;;;6.57;5.10;;;19.00;99.90;;;;;;5025260;28;20029;-73
2022/09/06 04:15:58;;;;;;;7.82;5.55;;;19.00;99.90;;;;;;5023070;28;20501;-73
2022/09/06 04:18:24;;;;;;;7.07;5.28;;;18.90;99.90;;;;;;5031887;28;20049;-73
2022/09/06 04:20:52;;;;;;;8.23;5.13;;;19.00;99.90;;;;;;5018486;28;20045;-73
2022/09/06 04:23:19;;;;;;;6.50;5.45;;;18.90;99.90;;;;;;5027538;28;20091;-73
2022/09/06 04:25:49;;;;;;;8.63;5.40;;;18.90;99.90;;;;;;5031438;28;20671;-73
2022/09/06 04:28:17;;;;;;;7.53;5.55;;;18.90;99.90;;;;;;5043411;28;20473;-72
2022/09/06 04:30:43;;;;;;;6.10;5.50;;;18.90;99.90;;;;;;5049017;28;20660;-72
2022/09/06 04:33:09;;;;;;;8.52;5.90;;;18.90;99.90;;;;;;5042726;28;20041;-71
2022/09/06 04:35:36;;;;;;;8.15;5.63;;;18.90;99.90;;;;;;5041996;28;20574;-72
2022/09/06 04:38:02;;;;;;;7.78;4.88;;;18.90;99.90;;;;;;5029027;28;20409;-73
2022/09/06 04:40:28;;;;;;;8.05;5.35;;;18.80;99.90;;;;;;5025605;28;20565;-72
2022/09/06 04:42:54;;;;;;;7.38;5.88;;;18.90;99.90;;;;;;5029288;28;20120;-73
2022/09/06 04:45:19;;;;;;;12.35;6.50;;;18.80;99.90;;;;;;5027633;28;20041;-73
2022/09/06 04:47:45;;;;;;;7.68;6.22;;;18.80;99.90;;;;;;5031934;28;20107;-73
2022/09/06 04:50:11;;;;;;;10.50;6.28;;;18.70;99.90;;;;;;5035774;28;20041;-73
2022/09/06 04:52:37;;;;;;;13.07;7.03;;;18.70;99.90;;;;;;5033530;28;20051;-73
2022/09/06 04:55:03;;;;;;;6.97;6.28;;;18.70;99.90;;;;;;5034041;28;20147;-73
2022/09/06 04:57:28;;;;;;;10.98;6.88;;;18.60;99.90;;;;;;5036294;28;20133;-73
2022/09/06 04:59:54;;;;;;;7.47;6.68;;;18.60;99.90;;;;;;5014822;28;20469;-73
2022/09/06 05:02:20;;;;;;;10.00;6.88;;;18.60;99.90;;;;;;5032202;28;20053;-73
2022/09/06 05:04:45;;;;;;;11.25;7.10;;;18.60;99.90;;;;;;5027660;28;20045;-73
2022/09/06 05:07:11;;;;;;;11.00;7.53;;;18.60;99.90;;;;;;5030969;28;20052;-73
2022/09/06 05:09:37;;;;;;;11.27;6.75;;;18.60;99.90;;;;;;5052852;28;20029;-73
2022/09/06 05:12:02;;;;;;;12.52;7.30;;;18.50;99.90;;;;;;5025727;28;20030;-73
2022/09/06 05:14:28;;;;;;;10.25;7.57;;;18.50;99.90;;;;;;5034031;28;20045;-73
2022/09/06 05:16:54;;;;;;;11.63;7.35;;;18.50;99.90;;;;;;5021630;28;20493;-73
2022/09/06 05:19:20;;;;;;;8.95;7.53;;;18.50;99.90;;;;;;5033353;28;20044;-73
2022/09/06 05:21:46;;;;;;;10.70;8.18;;;18.40;99.90;;;;;;5027570;28;20041;-73
2022/09/06 05:24:12;;;;;;;10.63;8.90;;;18.40;99.90;;;;;;5038000;28;20056;-73
2022/09/06 05:26:37;;;;;;;9.45;8.45;;;18.40;99.90;;;;;;5028876;28;20064;-73
2022/09/06 05:29:03;;;;;;;10.25;8.50;;;18.40;99.90;;;;;;5042906;28;20033;-73
2022/09/06 05:31:31;;;;;;;9.82;8.88;;;18.30;99.90;;;;;;5047257;28;20036;-73
2022/09/06 05:33:58;;;;;;;10.48;9.23;;;18.30;99.90;;;;;;5030196;28;20036;-74
2022/09/06 05:36:25;;;;;;;9.73;8.70;;;18.30;99.90;;;;;;5026658;28;20040;-73
2022/09/06 05:38:52;;;;;;;10.45;8.73;;;18.30;99.90;;;;;;5029518;28;20941;-73
2022/09/06 05:41:18;;;;;;;13.82;9.40;;;18.30;99.90;;;;;;5035455;28;20045;-73
2022/09/06 05:43:44;;;;;;;10.15;8.95;;;18.20;99.90;;;;;;5027819;28;20040;-73
2022/09/06 05:46:11;;;;;;;12.77;9.00;;;18.20;99.90;;;;;;5029403;28;20703;-73
2022/09/06 05:48:37;;;;;;;11.18;9.55;;;18.20;99.90;;;;;;5040650;28;20512;-73
2022/09/06 05:51:06;;;;;;;11.48;9.57;;;18.20;99.90;;;;;;5041918;28;20405;-73
2022/09/06 05:53:40;;;;;;;10.80;9.60;;;18.20;99.90;;;;;;5032476;28;20037;-73
2022/09/06 05:56:07;;;;;;;10.57;8.75;;;18.20;99.90;;;;;;5021914;28;20527;-74
2022/09/06 05:58:33;;;;;;;13.55;9.50;;;18.20;99.90;;;;;;5030030;28;20669;-73
2022/09/06 06:01:21;;;;;;;14.70;9.50;;;18.20;99.90;;;;;;5023746;28;20098;-74
2022/09/06 06:03:51;;;;;;;10.77;9.68;;;18.10;99.90;;;;;;5027381;28;20382;-74
2022/09/06 06:06:18;;;;;;;11.13;9.18;;;18.20;99.90;;;;;;5025330;28;20463;-74
2022/09/06 06:08:43;;;;;;;11.27;9.18;;;18.20;99.90;;;;;;5025154;28;20393;-74
2022/09/06 06:11:10;;;;;;;12.77;9.00;;;18.20;99.90;;;;;;5035534;28;20116;-73
2022/09/06 06:13:38;;;;;;;10.18;9.18;;;18.20;99.90;;;;;;5033629;28;20405;-74
2022/09/06 06:16:09;;;;;;;11.38;9.45;;;18.30;99.90;;;;;;5037345;28;20511;-74
2022/09/06 06:18:35;;;;;;;11.63;9.73;;;18.30;99.90;;;;;;5028933;28;20080;-74
2022/09/06 06:21:15;;;;;;;11.05;8.95;;;18.40;99.90;;;;;;5025055;28;20464;-74
2022/09/06 06:23:42;;;;;;;11.27;9.43;;;18.40;99.90;;;;;;5031745;28;20738;-74
2022/09/06 06:26:09;;;;;;;13.93;9.63;;;18.40;99.90;;;;;;5050926;28;20473;-74
2022/09/06 06:28:36;;;;;;;10.23;9.00;;;18.40;99.90;;;;;;5023267;28;20065;-74
2022/09/06 06:31:03;;;;;;;10.82;9.77;;;18.50;99.90;;;;;;5025027;28;20048;-74
2022/09/06 06:33:29;;;;;;;11.63;9.60;;;18.50;99.90;;;;;;5030217;28;20040;-74
2022/09/06 06:36:03;;;;;;;13.20;10.38;;;18.50;99.90;;;;;;5028725;28;20649;-74
2022/09/06 06:38:30;;;;;;;10.20;9.20;;;18.50;99.90;;;;;;5013533;28;20073;-74
2022/09/06 06:40:56;;;;;;;10.73;9.63;;;18.60;99.90;;;;;;5016695;28;20045;-73
2022/09/06 06:43:22;;;;;;;13.32;9.43;;;18.60;99.90;;;;;;5044244;28;20037;-73
2022/09/06 06:45:49;;;;;;;16.35;9.85;;;18.70;99.90;;;;;;5030841;28;20124;-73
2022/09/06 06:48:15;;;;;;;10.85;9.45;;;18.70;99.90;;;;;;5024807;28;20128;-73
2022/09/06 06:50:41;;;;;;;11.25;9.38;;;18.80;99.90;;;;;;5031316;28;20102;-73
2022/09/06 06:53:06;;;;;;;13.35;9.70;;;18.80;99.90;;;;;;5045290;28;20114;-73
2022/09/06 06:55:32;;;;;;;10.80;9.55;;;18.90;99.90;;;;;;5027390;28;20033;-73
2022/09/06 06:58:01;;;;;;;12.02;10.25;;;19.00;99.90;;;;;;5021440;28;20040;-73
2022/09/06 07:00:27;;;;;;;12.43;9.10;;;19.00;99.90;;;;;;5019617;28;20037;-73
2022/09/06 07:02:54;;;;;;;11.20;9.85;;;19.10;99.90;;;;;;5034129;28;20048;-73
2022/09/06 07:05:21;;;;;;;11.65;9.65;;;19.20;99.90;;;;;;5018289;28;20072;-73
2022/09/06 07:07:46;;;;;;;11.70;9.63;;;19.30;99.90;;;;;;5033266;28;20063;-72
2022/09/06 07:10:12;;;;;;;10.68;9.68;;;19.30;99.90;;;;;;5045734;28;20552;-72
2022/09/06 07:12:38;;;;;;;11.20;9.40;;;19.40;99.90;;;;;;5027912;28;20485;-72
2022/09/06 07:15:04;;;;;;;16.10;10.05;;;19.50;99.90;;;;;;5035363;28;20082;-72
2022/09/06 07:17:29;;;;;;;12.43;10.32;;;19.50;99.90;;;;;;5027019;28;20515;-72
2022/09/06 07:19:55;;;;;;;11.85;9.57;;;19.50;99.90;;;;;;5032802;28;20045;-72
2022/09/06 07:22:21;;;;;;;11.07;9.73;;;19.70;99.90;;;;;;5030011;28;20048;-72
2022/09/06 07:24:46;;;;;;;11.25;9.77;;;19.60;99.90;;;;;;5013132;28;20044;-72
2022/09/06 07:27:12;;;;;;;12.45;11.25;;;19.70;99.90;;;;;;5051326;28;20090;-72
2022/09/06 07:29:37;;;;;;;11.70;10.68;;;19.60;99.90;;;;;;5014357;28;20037;-72
2022/09/06 07:32:03;;;;;;;11.90;9.95;;;19.80;99.90;;;;;;5032817;28;20060;-72
2022/09/06 07:34:29;;;;;;;12.02;10.18;;;19.90;99.90;;;;;;5019565;28;20485;-72
2022/09/06 07:36:55;;;;;;;12.90;10.00;;;20.00;99.90;;;;;;5002798;28;20067;-71
2022/09/06 07:39:21;;;;;;;11.40;10.25;;;20.10;99.90;;;;;;5024347;28;20044;-72
2022/09/06 07:41:47;;;;;;;13.90;10.68;;;20.20;99.90;;;;;;5025478;28;20060;-72
2022/09/06 07:44:12;;;;;;;10.82;9.73;;;20.30;99.90;;;;;;5028735;28;20489;-72
2022/09/06 07:46:38;;;;;;;10.70;9.70;;;20.50;99.90;;;;;;5023495;28;20508;-72
2022/09/06 07:49:04;;;;;;;11.13;9.75;;;20.60;99.90;;;;;;5031441;28;20091;-71
2022/09/06 07:51:30;;;;;;;14.43;9.32;;;20.60;99.90;;;;;;5028262;28;20041;-72
2022/09/06 07:53:56;;;;;;;11.40;9.50;;;20.70;99.90;;;;;;5021287;28;20036;-72
2022/09/06 07:56:23;;;;;;;13.77;9.70;;;20.80;99.90;;;;;;5027624;28;20087;-72
2022/09/06 07:58:50;;;;;;;9.98;8.98;;;20.80;99.90;;;;;;5053620;28;20040;-72
2022/09/06 08:01:17;;;;;;;11.73;9.00;;;21.00;99.90;;;;;;5036651;28;20118;-72
2022/09/06 08:03:43;;;;;;;11.98;9.05;;;21.10;99.90;;;;;;5047356;28;20048;-72
2022/09/06 08:06:09;;;;;;;9.52;8.52;;;21.20;99.90;;;;;;5028428;28;20127;-72
2022/09/06 08:08:35;;;;;;;9.55;8.55;;;21.30;99.90;;;;;;5027451;28;20116;-72
2022/09/06 08:11:01;;;;;;;10.20;8.38;;;21.50;99.90;;;;;;5027274;28;20544;-72
2022/09/06 08:13:28;;;;;;;15.55;8.65;;;21.60;99.90;;;;;;5023861;28;20485;-72
2022/09/06 08:16:08;;;;;;;8.75;7.80;;;21.80;99.90;;;;;;5047210;28;20171;-72
2022/09/06 08:18:35;;;;;;;11.35;7.50;;;21.90;99.90;;;;;;5044647;28;20412;-72
2022/09/06 08:21:14;;;;;;;10.30;7.47;;;22.00;99.90;;;;;;5030958;28;20036;-72
2022/09/06 08:23:51;;;;;;;10.57;7.20;;;22.20;99.90;;;;;;5037991;28;20045;-72
2022/09/06 08:26:19;;;;;;;8.65;7.18;;;22.30;99.90;;;;;;5007228;28;20084;-72
2022/09/06 08:28:45;;;;;;;10.27;7.07;;;22.40;99.90;;;;;;5039485;28;20037;-72
2022/09/06 08:31:15;;;;;;;7.65;6.90;;;22.50;99.90;;;;;;5055652;28;20194;-72
2022/09/06 08:33:42;;;;;;;8.70;7.05;;;22.60;99.90;;;;;;5053354;28;20029;-72
2022/09/06 08:36:09;;;;;;;10.18;7.40;;;22.60;99.90;;;;;;5038360;28;20033;-72
2022/09/06 08:38:36;;;;;;;9.88;7.13;;;22.60;99.90;;;;;;5035360;28;20036;-72
2022/09/06 08:41:08;;;;;;;9.85;6.80;;;22.60;99.90;;;;;;5047601;28;20044;-72
2022/09/06 08:43:35;;;;;;;9.50;6.78;;;22.50;99.90;;;;;;5015475;28;20389;-73
2022/09/06 08:46:01;;;;;;;8.90;6.93;;;22.50;99.90;;;;;;5017738;28;20413;-73
2022/09/06 08:48:37;;;;;;;9.50;6.60;;;22.50;99.90;;;;;;5037134;28;20048;-73
2022/09/06 08:51:30;;;;;;;10.25;6.18;;;22.70;99.90;;;;;;5037252;28;20048;-73
2022/09/06 08:54:04;;;;;;;6.82;6.20;;;22.80;99.90;;;;;;5031555;28;20055;-73
2022/09/06 08:56:37;;;;;;;6.50;5.90;;;22.90;99.90;;;;;;5020621;28;20056;-73
2022/09/06 08:59:05;;;;;;;6.82;5.78;;;23.00;99.90;;;;;;5036144;28;20045;-73
2022/09/06 09:01:55;;;;;;;8.93;6.43;;;23.10;99.90;;;;;;5031790;28;20112;-73
2022/09/06 09:04:25;;;;;;;7.50;5.28;;;23.30;99.90;;;;;;5027745;28;20041;-73
2022/09/06 09:06:54;;;;;;;7.07;5.43;;;23.40;99.90;;;;;;5036251;28;20049;-73
2022/09/06 09:09:20;;;;;;;8.18;5.07;;;23.60;99.90;;;;;;5019224;28;20429;-73
2022/09/06 09:11:49;;;;;;;6.38;5.60;;;23.70;99.90;;;;;;5023234;28;20123;-73
2022/09/06 09:14:28;;;;;;;6.07;5.22;;;23.80;99.90;;;;;;5020230;28;20091;-73
2022/09/06 09:17:03;;;;;;;7.90;5.50;;;24.00;99.90;;;;;;5018103;28;20060;-73
2022/09/06 09:19:32;;;;;;;6.10;4.53;;;24.10;99.90;;;;;;5021614;28;20040;-73
2022/09/06 09:21:58;;;;;;;5.32;4.65;;;24.30;99.90;;;;;;5025311;28;20164;-73
2022/09/06 09:24:23;;;;;;;9.13;5.20;;;24.50;99.90;;;;;;5024628;28;20494;-73
2022/09/06 09:27:05;;;;;;;8.10;4.45;;;24.70;99.90;;;;;;5020304;28;20536;-73
2022/09/06 09:29:31;;;;;;;7.55;4.43;;;24.80;99.90;;;;;;5025050;28;20057;-73
2022/09/06 09:31:56;;;;;;;5.45;4.95;;;24.90;99.90;;;;;;5023273;28;20055;-73
2022/09/06 09:34:36;;;;;;;5.70;3.85;;;25.00;99.90;;;;;;5020244;28;20525;-73
2022/09/06 09:37:29;;;;;;;6.93;4.05;;;25.20;99.90;;;;;;5018613;28;20038;-73
2022/09/06 09:39:56;;;;;;;6.22;4.10;;;25.30;99.90;;;;;;5027479;28;20056;-73
2022/09/06 09:42:31;;;;;;;5.72;4.43;;;25.50;99.90;;;;;;5039292;28;20079;-73
2022/09/06 09:44:57;;;;;;;6.38;5.18;;;25.60;99.90;;;;;;5023909;28;20041;-73
2022/09/06 09:47:28;;;;;;;9.25;5.10;;;25.70;99.90;;;;;;5021788;28;20520;-73
2022/09/06 09:49:55;;;;;;;5.30;4.70;;;25.90;99.90;;;;;;5024038;28;20120;-73
2022/09/06 09:52:28;;;;;;;7.47;5.43;;;25.90;99.70;;;;;;5029111;28;20051;-73
2022/09/06 09:54:57;;;;;;;7.43;4.88;;;26.10;99.40;;;;;;5021372;28;20044;-73
2022/09/06 09:57:23;;;;;;;6.03;5.22;;;26.30;99.50;;;;;;5040513;28;20040;-73
2022/09/06 10:00:02;;;;;;;7.53;5.45;;;26.30;99.00;;;;;;5030142;28;20045;-73
2022/09/06 10:02:34;;;;;;;7.00;5.38;;;26.50;99.10;;;;;;5023102;28;20069;-73
2022/09/06 10:05:08;;;;;;;7.85;5.15;;;26.60;98.50;;;;;;5035128;28;20106;-73
2022/09/06 10:07:40;;;;;;;14.43;5.30;;;26.70;98.50;;;;;;5033127;28;20098;-73
2022/09/06 10:10:21;;;;;;;8.20;5.75;;;26.90;98.40;;;;;;5028850;28;20040;-73
2022/09/06 10:12:48;;;;;;;11.68;5.05;;;26.90;95.70;;;;;;5020215;28;20038;-73
2022/09/06 10:15:34;;;;;;;5.10;4.60;;;26.90;96.40;;;;;;5039483;28;20123;-73
2022/09/06 10:18:00;;;;;;;6.53;4.20;;;27.10;97.60;;;;;;5052958;28;20098;-73
2022/09/06 10:20:48;;;;;;;9.88;5.05;;;27.10;96.20;;;;;;5053047;28;20598;-73
2022/09/06 10:23:13;;;;;;;4.38;3.97;;;27.20;95.90;;;;;;5034515;28;20060;-73
2022/09/06 10:25:44;;;;;;;7.75;4.45;;;27.40;96.50;;;;;;5046879;28;20048;-73
2022/09/06 10:28:30;;;;;;;5.35;4.82;;;27.60;95.50;;;;;;5025175;28;20132;-73
2022/09/06 10:31:24;;;;;;;7.32;4.20;;;27.90;94.00;;;;;;5026496;28;20069;-73
2022/09/06 10:34:01;;;;;;;4.95;3.67;;;28.00;94.50;;;;;;5023291;28;20103;-73
2022/09/06 10:36:37;;;;;;;4.20;3.58;;;28.10;94.00;;;;;;5017466;28;20049;-73
2022/09/06 10:39:35;;;;;;;6.22;4.07;;;28.20;93.20;;;;;;5028914;28;20068;-73
2022/09/06 10:42:28;;;;;;;11.30;5.50;;;28.40;93.00;;;;;;5052296;28;20048;-73
2022/09/06 10:45:01;;;;;;;6.93;4.20;;;28.50;92.10;;;;;;5033088;28;20045;-73
2022/09/06 10:47:34;;;;;;;7.90;4.00;;;28.60;92.50;;;;;;5018732;28;20056;-73
2022/09/06 10:50:01;;;;;;;3.72;2.78;;;28.80;92.80;;;;;;5047493;28;20048;-73
2022/09/06 10:52:35;;;;;;;7.78;2.95;;;28.90;91.80;;;;;;5018190;28;20083;-73
2022/09/06 10:55:04;;;;;;;3.95;3.00;;;29.20;91.10;;;;;;5016297;28;20046;-73
2022/09/06 10:57:49;;;;;;;6.88;3.20;;;29.30;90.70;;;;;;5029638;28;20044;-73
2022/09/06 11:00:16;;;;;;;2.67;2.40;;;29.60;90.90;;;;;;5023004;28;20037;-73
2022/09/06 11:03:02;;;;;;;3.55;2.90;;;29.70;89.90;;;;;;5029826;28;20044;-73
2022/09/06 11:05:51;;;;;;;5.55;3.00;;;29.80;88.20;;;;;;5031988;28;20056;-73
2022/09/06 11:08:46;;;;;;;2.75;2.03;;;29.90;88.50;;;;;;5029694;28;20041;-73
2022/09/06 11:11:22;;;;;;;2.60;2.35;;;30.20;85.00;;;;;;5004511;28;20057;-73
2022/09/06 11:13:48;;;;;;;4.50;3.00;;;30.30;85.70;;;;;;5030845;28;20489;-73
2022/09/06 11:16:38;;;;;;;5.25;2.70;;;30.40;84.00;;;;;;5033688;28;20041;-73
2022/09/06 11:19:13;;;;;;;6.80;2.55;;;30.40;83.10;;;;;;5017787;28;20049;-73
2022/09/06 11:21:45;;;;;;;2.75;2.40;;;30.50;83.30;;;;;;5028035;28;20053;-73
2022/09/06 11:24:35;;;;;;;3.72;2.15;;;30.60;83.90;;;;;;5036722;28;20052;-73
2022/09/06 11:27:32;;;;;;;5.95;2.60;;;30.70;80.90;;;;;;5033279;28;20068;-73
2022/09/06 11:30:00;;;;;;;3.65;2.53;;;30.90;81.10;;;;;;5029817;28;20124;-73
2022/09/06 11:32:47;;;;;;;6.65;3.30;;;31.00;81.30;;;;;;5029076;28;20045;-73
2022/09/06 11:35:23;;;;;;;10.32;3.28;;;31.10;79.70;;;;;;5026095;28;20120;-73
2022/09/06 11:38:02;;;;;;;4.90;3.20;;;31.20;79.90;;;;;;5021737;28;20045;-73
2022/09/06 11:40:40;;;;;;;3.35;2.50;;;31.30;79.70;;;;;;5024822;28;20049;-73
2022/09/06 11:43:35;;;;;;;4.50;2.33;;;31.50;79.10;;;;;;5029889;28;20123;-73
2022/09/06 11:46:00;;;;;;;3.67;2.78;;;31.50;77.90;;;;;;5022452;28;20071;-73
2022/09/06 11:48:27;;;;;;;3.85;2.30;;;31.70;75.90;;;;;;5024999;28;20037;-74
2022/09/06 11:50:53;;;;;;;3.38;2.53;;;31.60;76.60;;;;;;5028791;28;20036;-74
2022/09/06 11:53:21;;;;;;;2.38;2.08;;;31.50;76.30;;;;;;5029946;28;20033;-73
2022/09/06 11:55:50;;;;;;;4.90;2.17;;;31.50;75.10;;;;;;5021308;28;20041;-73
2022/09/06 11:58:15;;;;;;;4.65;2.60;;;31.70;75.40;;;;;;5051351;28;20037;-73
2022/09/06 12:00:43;;;;;;;2.90;2.40;;;31.80;74.40;;;;;;5033453;28;20045;-73
2022/09/06 12:03:40;;;;;;;5.35;2.15;;;32.00;73.20;;;;;;5037625;28;20058;-74
2022/09/06 12:06:20;;;;;;;4.30;2.10;;;32.20;72.30;;;;;;5020866;28;20045;-73
2022/09/06 12:08:51;;;;;;;7.95;2.05;;;32.40;72.80;;;;;;5032440;28;20037;-74
2022/09/06 12:11:32;;;;;;;;;;;32.50;69.70;;;;;;5016746;28;20082;-73
2022/09/06 12:14:21;;;;;;;3.92;2.35;;;32.40;70.90;;;;;;5041413;28;19916;-73
2022/09/06 12:17:03;;;;;;;3.80;2.25;;;32.50;70.10;;;;;;5036518;28;20128;-73
2022/09/06 12:19:51;;;;;;;4.60;2.22;;;32.60;70.40;;;;;;5024014;28;20053;-72
2022/09/06 12:22:29;;;;;;;4.32;2.33;;;32.70;69.20;;;;;;5024645;28;20065;-72
2022/09/06 12:24:55;;;;;;;6.45;2.20;;;32.70;67.90;;;;;;5050679;28;20041;-72
2022/09/06 12:27:23;;;;;;;4.35;2.90;;;32.80;68.80;;;;;;5029291;28;20064;-72
2022/09/06 12:30:03;;;;;;;3.03;2.38;;;32.80;66.50;;;;;;5024557;28;20099;-72
2022/09/06 12:32:50;;;;;;;4.00;1.85;;;32.70;67.20;;;;;;5024944;28;20052;-72
2022/09/06 12:35:19;;;;;;;3.60;1.95;;;32.80;67.40;;;;;;5038068;28;20025;-73
2022/09/06 12:37:57;;;;;;;3.58;1.60;;;32.80;67.00;;;;;;5021343;28;20033;-73
2022/09/06 12:40:25;;;;;;;2.83;2.00;;;32.90;67.10;;;;;;5022327;28;20049;-73
2022/09/06 12:42:52;;;;;;;2.20;1.50;;;33.00;66.90;;;;;;5019395;28;20064;-73
2022/09/06 12:45:22;;;;;;;3.75;1.70;;;32.70;66.00;;;;;;5020589;28;20084;-74
2022/09/06 12:47:50;;;;;;;3.17;1.83;;;32.60;66.90;;;;;;5027602;28;20037;-73
2022/09/06 12:50:22;;;;;;;2.92;1.65;;;32.70;66.40;;;;;;5042721;28;20029;-73
2022/09/06 12:53:23;;;;;;;3.60;1.95;;;32.50;66.50;;;;;;5004640;28;20033;-73
2022/09/06 12:56:02;;;;;;;2.60;1.80;;;32.70;64.90;;;;;;5017794;28;20037;-73
2022/09/06 12:58:28;;;;;;;2.42;1.80;;;32.90;66.40;;;;;;5028901;28;20045;-73
2022/09/06 13:01:00;;;;;;;3.85;1.90;;;33.00;65.80;;;;;;5029413;28;20558;-73
2022/09/06 13:03:59;;;;;;;5.20;2.03;;;33.30;65.20;;;;;;5017195;28;20106;-73
2022/09/06 13:06:26;;;;;;;1.67;1.35;;;33.40;63.80;;;;;;5032785;28;20080;-73
2022/09/06 13:08:56;;;;;;;6.35;1.70;;;33.60;63.00;;;;;;5032931;28;20063;-73
2022/09/06 13:11:33;;;;;;;3.22;1.80;;;33.50;63.40;;;;;;5032488;28;20119;-73
2022/09/06 13:14:01;;;;;;;3.10;1.90;;;33.60;63.10;;;;;;5033404;28;20112;-73